^^
Station Historical Data
Daily Summary for March 18, 2017 Units:  Metric    English   Both
« Previous Day
Next Day »
Daily Weekly Monthly Yearly Custom
  High: Low: Average:
Temperature: 32.2 °C 22.1 °C 25.8 °C
Dew Point: 13.5 °C 5.2 °C 7.6 °C
Humidity: 45% 19% 32%
Wind Speed: 25.9km/h 0km/h 13.4km/h
Wind Gust: 27.4km/h - -
Wind- - SSW
Pressure: 1016.1 hPa 1010 hPa -
Precipitation: 0 mm    
Historical Graphs
 
 
Tabular Data for March 18, 2017
Time Temperature Dew Point Pressure Wind Wind Speed Wind Gust Humidity Rainfall Rate (Hourly) solar Conditions
00:02 25.8 °C 5.9 °C 1011.4 hPa SSW 11.1 km/h 14.5 km/h 28% 0 mm 0.0 W/m2
00:10 25.7 °C 5.8 °C 1011.4 hPa SSW 13 km/h 16.1 km/h 28% 0 mm 0.0 W/m2
00:16 25.6 °C 5.2 °C 1011.4 hPa SSW 13 km/h 16.1 km/h 27% 0 mm 0.0 W/m2
00:27 25.5 °C 5.7 °C 1011.4 hPa SSW 16.3 km/h 16.3 km/h 28% 0 mm 0.0 W/m2
00:34 25.4 °C 5.6 °C 1011.4 hPa SSW 13 km/h 16.1 km/h 28% 0 mm 0.0 W/m2
01:39 24.4 °C 5.7 °C 1011.7 hPa SSW 11.1 km/h 16.1 km/h 30% 0 mm 0.0 W/m2
01:44 24.4 °C 6.2 °C 1011.7 hPa SSW 14.3 km/h 19.3 km/h 31% 0 mm 0.0 W/m2
01:54 24.3 °C 6.1 °C 1011.7 hPa SSW 16.3 km/h 17.7 km/h 31% 0 mm 0.0 W/m2
01:59 24.2 °C 6 °C 1011.7 hPa SSW 17.7 km/h 20.9 km/h 31% 0 mm 0.0 W/m2
02:09 24.2 °C 6 °C 1011.7 hPa SSW 11.1 km/h 17.7 km/h 31% 0 mm 0.0 W/m2
02:14 24.3 °C 6.1 °C 1011.7 hPa SSW 14.3 km/h 14.5 km/h 31% 0 mm 0.0 W/m2
02:19 24.2 °C 6 °C 1011.7 hPa SSW 14.3 km/h 16.1 km/h 31% 0 mm 0.0 W/m2
02:24 24.2 °C 6 °C 1011.7 hPa SSW 13 km/h 17.7 km/h 31% 0 mm 0.0 W/m2
02:29 24.2 °C 6 °C 1011.7 hPa SSW 20.9 km/h 24.1 km/h 31% 0 mm 0.0 W/m2
02:39 24.2 °C 5.5 °C 1011.4 hPa SSW 11.1 km/h 17.7 km/h 30% 0 mm 0.0 W/m2
02:50 24 °C 5.4 °C 1011.4 hPa SSW 16.3 km/h 20.9 km/h 30% 0 mm 0.0 W/m2
02:55 24 °C 5.8 °C 1011.1 hPa SSW 17.7 km/h 25.7 km/h 31% 0 mm 0.0 W/m2
03:00 23.9 °C 5.7 °C 1010.7 hPa SSW 20.9 km/h 25.7 km/h 31% 0 mm 0.0 W/m2
03:05 23.9 °C 6.2 °C 1010.7 hPa SSW 17.7 km/h 22.5 km/h 32% 0 mm 0.0 W/m2
03:10 23.9 °C 7.1 °C 1010.7 hPa SSW 24.1 km/h 27.4 km/h 34% 0 mm 0.0 W/m2
03:15 23.8 °C 7.4 °C 1010.7 hPa SSW 16.3 km/h 25.7 km/h 35% 0 mm 0.0 W/m2
03:25 23.7 °C 7.7 °C 1011.1 hPa SSW 17.7 km/h 25.7 km/h 36% 0 mm 0.0 W/m2
03:30 23.7 °C 7.3 °C 1010.4 hPa South 20.9 km/h 27.4 km/h 35% 0 mm 0.0 W/m2
03:35 23.2 °C 9.9 °C 1010 hPa South 24.1 km/h 27.4 km/h 43% 0 mm 0.0 W/m2
03:40 22.8 °C 9.9 °C 1010 hPa South 17.7 km/h 19.3 km/h 44% 0 mm 0.0 W/m2
03:45 22.6 °C 9.7 °C 1010 hPa SSE 25.9 km/h 27.4 km/h 44% 0 mm 0.0 W/m2
03:55 22.5 °C 10 °C 1010 hPa South 9.7 km/h 16.1 km/h 45% 0 mm 0.0 W/m2
04:05 22.7 °C 9.1 °C 1010.4 hPa SSW 14.3 km/h 22.5 km/h 42% 0 mm 0.0 W/m2
04:10 23 °C 8.3 °C 1010.4 hPa SSW 11.1 km/h 24.1 km/h 39% 0 mm 0.0 W/m2
04:15 23.1 °C 8.4 °C 1010.4 hPa SSW 11.1 km/h 17.7 km/h 39% 0 mm 0.0 W/m2
04:20 23 °C 8.3 °C 1010.7 hPa SSW 17.7 km/h 17.7 km/h 39% 0 mm 0.0 W/m2
04:25 22.8 °C 8.1 °C 1010.7 hPa SSW 17.7 km/h 25.7 km/h 39% 0 mm 0.0 W/m2
04:30 22.7 °C 8 °C 1010.7 hPa SSW 14.3 km/h 19.3 km/h 39% 0 mm 0.0 W/m2
04:41 22.7 °C 7.3 °C 1010.7 hPa SSW 13 km/h 17.7 km/h 37% 0 mm 0.0 W/m2
04:50 22.6 °C 6.8 °C 1010.7 hPa SSW 14.3 km/h 19.3 km/h 36% 0 mm 0.0 W/m2
04:55 22.6 °C 6.8 °C 1010.7 hPa SSW 17.7 km/h 20.9 km/h 36% 0 mm 0.0 W/m2
05:00 22.6 °C 6.8 °C 1011.1 hPa SSW 19.5 km/h 20.9 km/h 36% 0 mm 0.0 W/m2
05:05 22.6 °C 6.8 °C 1011.1 hPa SSW 20.9 km/h 22.5 km/h 36% 0 mm 0.0 W/m2
05:10 22.5 °C 7.1 °C 1011.1 hPa SSW 9.7 km/h 17.7 km/h 37% 0 mm 0.0 W/m2
05:20 22.3 °C 6.9 °C 1011.1 hPa SSW 19.5 km/h 25.7 km/h 37% 0 mm 0.0 W/m2
05:26 22.2 °C 7.2 °C 1011.4 hPa SSW 19.5 km/h 24.1 km/h 38% 0 mm 0.0 W/m2
05:31 22.1 °C 7.1 °C 1011.4 hPa SSW 13 km/h 20.9 km/h 38% 0 mm 0.0 W/m2
05:41 22.2 °C 6.8 °C 1011.7 hPa SSW 17.7 km/h 20.9 km/h 37% 0 mm 0.0 W/m2
05:46 22.2 °C 6.8 °C 1011.7 hPa SSW 14.3 km/h 16.1 km/h 37% 0 mm 0.0 W/m2
05:56 22.2 °C 7.2 °C 1011.7 hPa SSW 11.1 km/h 20.9 km/h 38% 0 mm 0.0 W/m2
06:01 22.2 °C 7.2 °C 1012.1 hPa SSW 14.3 km/h 17.7 km/h 38% 0 mm 0.0 W/m2
06:06 22.1 °C 7.1 °C 1012.1 hPa SSW 14.3 km/h 20.9 km/h 38% 0 mm 0.0 W/m2
06:11 22.1 °C 7.1 °C 1012.1 hPa SSW 16.3 km/h 16.3 km/h 38% 0 mm 0.0 W/m2
06:16 22.1 °C 7.1 °C 1012.1 hPa SSW 11.1 km/h 16.1 km/h 38% 0 mm 0.0 W/m2
06:22 22.1 °C 7.1 °C 1012.1 hPa SSW 11.1 km/h 17.7 km/h 38% 0 mm 0.0 W/m2
06:27 22.1 °C 7.1 °C 1012.1 hPa SSW 11.1 km/h 16.1 km/h 38% 0 mm 0.0 W/m2
06:44 22.1 °C 7.1 °C 1012.4 hPa SSW 11.1 km/h 12.9 km/h 38% 0 mm 0.0 W/m2
06:50 22.1 °C 7.1 °C 1012.4 hPa SSW 9.7 km/h 12.9 km/h 38% 0 mm 0.0 W/m2
06:57 22.2 °C 7.2 °C 1012.4 hPa SSW 13 km/h 16.1 km/h 38% 0 mm 12.0 W/m2
07:00 22.2 °C 6.8 °C 1012.8 hPa SSW 14.3 km/h 19.3 km/h 37% 0 mm 19.0 W/m2
07:05 22.3 °C 6.9 °C 1012.8 hPa SSW 11.1 km/h 17.7 km/h 37% 0 mm 25.0 W/m2
07:16 22.4 °C 7 °C 1012.8 hPa SSW 11.1 km/h 17.7 km/h 37% 0 mm 33.0 W/m2
07:20 22.4 °C 6.6 °C 1012.8 hPa SSW 14.3 km/h 16.1 km/h 36% 0 mm 67.0 W/m2
07:38 22.7 °C 6.4 °C 1013.1 hPa SSW 7.9 km/h 12.9 km/h 35% 0 mm 130.0 W/m2
08:33 23.8 °C 7 °C 1013.4 hPa SSW 13 km/h 16.1 km/h 34% 0 mm 144.0 W/m2
08:38 23.8 °C 7 °C 1013.4 hPa SSW 11.1 km/h 17.7 km/h 34% 0 mm 165.0 W/m2
08:43 23.7 °C 6.9 °C 1013.4 hPa SSW 13 km/h 16.1 km/h 34% 0 mm 190.0 W/m2
08:48 23.8 °C 7 °C 1013.4 hPa SSW 14.3 km/h 16.1 km/h 34% 0 mm 211.0 W/m2
08:53 23.8 °C 7 °C 1013.4 hPa SSW 11.1 km/h 16.1 km/h 34% 0 mm 385.0 W/m2
08:58 23.8 °C 7 °C 1013.8 hPa SSW 14.3 km/h 17.7 km/h 34% 0 mm 290.0 W/m2
09:03 23.9 °C 7.1 °C 1013.8 hPa SSW 14.3 km/h 17.7 km/h 34% 0 mm 378.0 W/m2
09:08 24.2 °C 7.3 °C 1013.8 hPa SSW 16.3 km/h 17.7 km/h 34% 0 mm 294.0 W/m2
09:13 24.5 °C 7.2 °C 1013.8 hPa SSW 14.3 km/h 17.7 km/h 33% 0 mm 404.0 W/m2
09:18 24.5 °C 7.2 °C 1013.8 hPa SSW 17.7 km/h 20.9 km/h 33% 0 mm 330.0 W/m2
09:28 25 °C 7.2 °C 1013.8 hPa SSW 16.3 km/h 16.3 km/h 32% 0 mm 385.0 W/m2
09:33 25.2 °C 7.3 °C 1013.8 hPa SSW 13 km/h 17.7 km/h 32% 0 mm 547.0 W/m2
09:43 25.5 °C 7.1 °C 1014.1 hPa SSW 16.3 km/h 16.3 km/h 31% 0 mm 330.0 W/m2
10:06 25.3 °C 7 °C 1014.1 hPa SSW 19.5 km/h 19.5 km/h 31% 0 mm 385.0 W/m2
10:14 25.3 °C 7 °C 1014.1 hPa SSW 17.7 km/h 17.7 km/h 31% 0 mm 385.0 W/m2
10:19 25.4 °C 7 °C 1014.1 hPa SSW 14.3 km/h 16.1 km/h 31% 0 mm 383.0 W/m2
10:24 25.5 °C 7.1 °C 1014.1 hPa SSW 16.3 km/h 17.7 km/h 31% 0 mm 376.0 W/m2
10:29 25.7 °C 7.3 °C 1014.1 hPa SSW 13 km/h 16.1 km/h 31% 0 mm 373.0 W/m2
10:34 25.8 °C 6.9 °C 1014.1 hPa SSW 11.1 km/h 14.5 km/h 30% 0 mm 448.0 W/m2
10:44 26.1 °C 7.2 °C 1014.1 hPa SSW 6.4 km/h 11.3 km/h 30% 0 mm 290.0 W/m2
10:54 26.1 °C 7.2 °C 1014.1 hPa SSW 11.1 km/h 16.1 km/h 30% 0 mm 285.0 W/m2
10:59 26.1 °C 7.2 °C 1013.8 hPa SSW 14.3 km/h 16.1 km/h 30% 0 mm 285.0 W/m2
11:04 26.1 °C 7.2 °C 1013.8 hPa SSW 14.3 km/h 16.1 km/h 30% 0 mm 295.0 W/m2
11:09 26.1 °C 7.2 °C 1013.8 hPa SSW 11.1 km/h 16.1 km/h 30% 0 mm 302.0 W/m2
11:19 26.2 °C 7.3 °C 1013.8 hPa SSW 9.7 km/h 12.9 km/h 30% 0 mm 316.0 W/m2
11:24 26.4 °C 7.4 °C 1013.8 hPa SSW 14.3 km/h 14.5 km/h 30% 0 mm 341.0 W/m2
11:29 26.4 °C 6.9 °C 1013.8 hPa SSW 9.7 km/h 12.9 km/h 29% 0 mm 360.0 W/m2
11:33 26.5 °C 7 °C 1013.8 hPa SSW 14.3 km/h 16.1 km/h 29% 0 mm 367.0 W/m2
11:39 26.6 °C 7.1 °C 1013.8 hPa SSW 9.7 km/h 11.3 km/h 29% 0 mm 373.0 W/m2
12:09 28.3 °C 7.5 °C 1013.8 hPa SSW 13 km/h 16.1 km/h 27% 0 mm 621.0 W/m2
12:14 29 °C 7.6 °C 1013.8 hPa SSW 13 km/h 19.3 km/h 26% 0 mm 802.0 W/m2
12:24 28.8 °C 7.4 °C 1013.4 hPa SSW 13 km/h 19.3 km/h 26% 0 mm 557.0 W/m2
12:39 29.5 °C 7.4 °C 1013.4 hPa SSW 11.1 km/h 17.7 km/h 25% 0 mm 830.0 W/m2
12:44 29.7 °C 7 °C 1013.4 hPa SSW 13 km/h 19.3 km/h 24% 0 mm 621.0 W/m2
12:49 30 °C 7.2 °C 1013.4 hPa SSW 11.1 km/h 16.1 km/h 24% 0 mm 582.0 W/m2
12:54 29.9 °C 7.1 °C 1013.1 hPa SSW 17.7 km/h 19.3 km/h 24% 0 mm 446.0 W/m2
13:00 29.9 °C 7.1 °C 1013.1 hPa SSW 13 km/h 17.7 km/h 24% 0 mm 411.0 W/m2
13:10 30.1 °C 7.3 °C 1013.1 hPa SSW 16.3 km/h 17.7 km/h 24% 0 mm 359.0 W/m2
13:15 30.3 °C 6.9 °C 1013.1 hPa SW 11.1 km/h 19.3 km/h 23% 0 mm 366.0 W/m2
13:20 30.4 °C 6.9 °C 1012.8 hPa SW 17.7 km/h 24.1 km/h 23% 0 mm 380.0 W/m2
13:23 30.4 °C 6.9 °C 1013.1 hPa SW 13 km/h 17.7 km/h 23% 0 mm 396.0 W/m2
13:30 30.4 °C 6.9 °C 1012.8 hPa SW 13 km/h 25.7 km/h 23% 0 mm 408.0 W/m2
14:03 30.2 °C 6.8 °C 1012.8 hPa SW 19.5 km/h 24.1 km/h 23% 0 mm 425.0 W/m2
14:08 30.1 °C 6.7 °C 1012.8 hPa SW 25.9 km/h 25.9 km/h 23% 0 mm 422.0 W/m2
14:22 30.2 °C 6.8 °C 1012.4 hPa SW 17.7 km/h 20.9 km/h 23% 0 mm 446.0 W/m2
14:28 30.4 °C 6.3 °C 1012.4 hPa SW 13 km/h 25.7 km/h 22% 0 mm 478.0 W/m2
14:39 30.3 °C 6.2 °C 1012.4 hPa SW 20.9 km/h 22.5 km/h 22% 0 mm 482.0 W/m2
14:43 30.5 °C 6.4 °C 1012.4 hPa SW 17.7 km/h 22.5 km/h 22% 0 mm 780.0 W/m2
15:06 30.7 °C 5.9 °C 1012.1 hPa SW 14.3 km/h 22.5 km/h 21% 0 mm 325.0 W/m2
15:20 30.7 °C 6.5 °C 1011.7 hPa SW 20.9 km/h 24.1 km/h 22% 0 mm 773.0 W/m2
15:34 31.1 °C 6.2 °C 1011.7 hPa SW 17.7 km/h 24.1 km/h 21% 0 mm 717.0 W/m2
15:44 31.2 °C 6.3 °C 1011.7 hPa SW 25.9 km/h 25.9 km/h 21% 0 mm 691.0 W/m2
15:53 31.1 °C 6.2 °C 1011.4 hPa SW 19.5 km/h 25.7 km/h 21% 0 mm 454.0 W/m2
16:02 30.7 °C 5.9 °C 1011.4 hPa SW 20.9 km/h 24.1 km/h 21% 0 mm 244.0 W/m2
16:08 30.8 °C 6 °C 1011.4 hPa SW 19.5 km/h 27.4 km/h 21% 0 mm 366.0 W/m2
16:14 31.1 °C 6.2 °C 1011.4 hPa SW 19.5 km/h 24.1 km/h 21% 0 mm 659.0 W/m2
16:24 31.5 °C 5.8 °C 1011.1 hPa SW 14.3 km/h 24.1 km/h 20% 0 mm 622.0 W/m2
16:35 31.9 °C 6.1 °C 1011.1 hPa SW 16.3 km/h 24.1 km/h 20% 0 mm 492.0 W/m2
16:44 32 °C 6.2 °C 1011.1 hPa SSW 16.3 km/h 20.9 km/h 20% 0 mm 547.0 W/m2
16:56 32.2 °C 5.7 °C 1011.1 hPa SW 17.7 km/h 22.5 km/h 19% 0 mm 478.0 W/m2
17:10 31.9 °C 6.1 °C 1011.4 hPa SW 16.3 km/h 20.9 km/h 20% 0 mm 218.0 W/m2
17:19 31.3 °C 5.7 °C 1011.4 hPa SW 14.3 km/h 17.7 km/h 20% 0 mm 120.0 W/m2
22:41 26.4 °C 12.8 °C 1015.1 hPa Calm     43% 0 mm 0.0 W/m2
22:46 26.4 °C 13.2 °C 1015.1 hPa Calm     44% 0 mm 0.0 W/m2
22:51 26.5 °C 12.9 °C 1015.1 hPa Calm     43% 0 mm 0.0 W/m2
22:57 26.6 °C 13 °C 1015.1 hPa Calm     43% 0 mm 0.0 W/m2
23:02 26.6 °C 13.3 °C 1015.1 hPa Calm     44% 0 mm 0.0 W/m2
23:07 26.5 °C 13.3 °C 1015.1 hPa Calm     44% 0 mm 0.0 W/m2
23:13 26.3 °C 13.1 °C 1015.1 hPa Calm     44% 0 mm 0.0 W/m2
23:18 26.2 °C 13.3 °C 1015.5 hPa Calm     45% 0 mm 0.0 W/m2
23:23 26.1 °C 13.2 °C 1015.5 hPa Calm     45% 0 mm 0.0 W/m2
23:28 26.1 °C 13.2 °C 1015.5 hPa Calm     45% 0 mm 0.0 W/m2
23:33 26.2 °C 13.3 °C 1015.5 hPa Calm     45% 0 mm 0.0 W/m2
23:38 26.3 °C 13.4 °C 1015.8 hPa Calm     45% 0 mm 0.0 W/m2
23:44 26.3 °C 13.4 °C 1015.8 hPa Calm     45% 0 mm 0.0 W/m2
23:49 26.4 °C 13.5 °C 1016.1 hPa Calm     45% 0 mm 0.0 W/m2
23:55 26.6 °C 13.3 °C 1016.1 hPa Calm     44% 0 mm 0.0 W/m2
Canyon Roadhouse, Fishriver Canyon, Namibia
Compliments of Weather Underground - 2.25 mb